This is the latest recevied weather packets stored in our database for station/object K5KHP. If no packets are shown the sender has not sent any weather packets the latest 1 day(s).
| Time | Temp. | Humidity | Pressure | Rain* | Wind** | Luminosity | Snow |
|---|---|---|---|---|---|---|---|
| 1778032577 | 16.67° C | 77% | 1013.5 hPa | 0 mm | 0 m/s | 29 W/m² | - |
| 1778032274 | 16.67° C | 77% | 1013.5 hPa | 0 mm | 0 m/s | 35 W/m² | - |
| 1778031971 | 16.67° C | 76% | 1013.6 hPa | 0 mm | 0 m/s | 40 W/m² | - |
| 1778031666 | 16.67° C | 76% | 1013.3 hPa | 0 mm | 0 m/s | 47 W/m² | - |
| 1778031365 | 17.22° C | 74% | 1013.4 hPa | 0 mm | 0.45 m/s, 226° | 62 W/m² | - |
| 1778031061 | 17.78° C | 73% | 1013.6 hPa | 0 mm | 0 m/s | 104 W/m² | - |
| 1778030757 | 17.78° C | 73% | 1013.6 hPa | 0 mm | 0.45 m/s, 236° | 115 W/m² | - |
| 1778030454 | 17.22° C | 73% | 1013.5 hPa | 0 mm | 0 m/s | 129 W/m² | - |
| 1778030152 | 17.22° C | 73% | 1013.4 hPa | 0 mm | 2.24 m/s, 210° | 153 W/m² | - |
| 1778029848 | 17.22° C | 73% | 1013.6 hPa | 0 mm | 1.34 m/s, 229° | 160 W/m² | - |
| 1778029548 | 17.22° C | 73% | 1013.5 hPa | 0 mm | 0 m/s | 157 W/m² | - |
| 1778029244 | 17.78° C | 73% | 1013.5 hPa | 0 mm | 0 m/s | 166 W/m² | - |
| 1778028941 | 17.22° C | 73% | 1013.6 hPa | 0 mm | 0 m/s | 162 W/m² | - |
| 1778028637 | 17.22° C | 72% | 1013.3 hPa | 0 mm | 0 m/s | 169 W/m² | - |
| 1778028334 | 16.67° C | 73% | 1013.3 hPa | 0 mm | 1.34 m/s, 266° | 207 W/m² | - |
| 1778028031 | 16.67° C | 74% | 1013.4 hPa | 0 mm | 0 m/s | 98 W/m² | - |
| 1778027727 | 16.67° C | 74% | 1013.3 hPa | 0 mm | 0.45 m/s, 251° | 101 W/m² | - |
| 1778027424 | 16.67° C | 75% | 1013.5 hPa | 0 mm | 0 m/s | 113 W/m² | - |
| 1778027120 | 17.22° C | 75% | 1013.3 hPa | 0 mm | 1.34 m/s, 275° | 116 W/m² | - |
| 1778026815 | 17.22° C | 75% | 1013.4 hPa | 0 mm | 0.89 m/s, 275° | 102 W/m² | - |
| 1778026512 | 16.67° C | 75% | 1013.4 hPa | 0 mm | 0.89 m/s, 176° | 92 W/m² | - |
| 1778026209 | 16.67° C | 75% | 1013.3 hPa | 0 mm | 0 m/s | 93 W/m² | - |
| 1778025907 | 17.22° C | 74% | 1013.6 hPa | 0 mm | 0 m/s | 118 W/m² | - |
| 1778025604 | 17.22° C | 75% | 1013.3 hPa | 0 mm | 1.34 m/s, 276° | 150 W/m² | - |
| 1778025302 | 17.22° C | 73% | 1013.4 hPa | 0 mm | 1.34 m/s, 276° | 126 W/m² | - |
* Rain latest hour (hover to see other rain measurements)
** Current wind speed in m/s (hover to see current wind gust speed)